createdAt,value
2019-05-23T00:02:25.469Z,4.57
2019-05-23T00:05:11.682Z,3.90
2019-05-23T00:07:43.529Z,3.67
2019-05-23T00:10:21.033Z,3.80
2019-05-23T00:13:00.510Z,4.07
2019-05-23T00:15:36.228Z,3.73
2019-05-23T00:18:06.426Z,3.63
2019-05-23T00:20:38.110Z,4.00
2019-05-23T00:23:10.959Z,4.40
2019-05-23T00:25:41.115Z,3.67
2019-05-23T00:28:11.370Z,4.10
2019-05-23T00:30:54.565Z,3.87
2019-05-23T00:33:28.698Z,3.87
2019-05-23T00:36:00.243Z,4.00
2019-05-23T00:38:31.482Z,4.27
2019-05-23T00:41:02.756Z,3.80
2019-05-23T00:43:34.634Z,3.87
2019-05-23T00:46:05.919Z,3.87
2019-05-23T00:48:36.214Z,3.77
2019-05-23T00:51:06.351Z,3.90
2019-05-23T00:53:37.607Z,4.00
2019-05-23T00:56:09.448Z,4.17
2019-05-23T00:58:40.931Z,4.07
2019-05-23T01:01:11.561Z,4.20
2019-05-23T01:03:41.492Z,4.03
2019-05-23T01:06:18.759Z,3.90
2019-05-23T01:08:49.954Z,3.53
2019-05-23T01:11:23.818Z,3.53
2019-05-23T01:13:54.115Z,3.40
2019-05-23T01:16:24.630Z,3.40
2019-05-23T01:18:55.153Z,4.17
2019-05-23T01:21:51.672Z,4.00
2019-05-23T01:24:28.499Z,3.63
2019-05-23T01:26:59.439Z,4.00
2019-05-23T01:29:37.745Z,3.90
2019-05-23T01:32:12.431Z,4.30
2019-05-23T01:34:43.425Z,4.07
2019-05-23T01:37:15.765Z,3.50
2019-05-23T01:39:46.113Z,3.87
2019-05-23T01:42:16.446Z,4.33
2019-05-23T01:44:47.652Z,3.63
2019-05-23T01:47:19.519Z,4.10
2019-05-23T01:49:49.850Z,4.03
2019-05-23T01:52:19.938Z,3.90
2019-05-23T01:54:49.698Z,4.40
2019-05-23T01:57:19.820Z,3.83
2019-05-23T02:00:06.231Z,3.90
2019-05-23T02:02:23.434Z,3.57
2019-05-23T02:04:54.238Z,3.93
2019-05-23T02:07:24.771Z,4.07
2019-05-23T02:09:54.795Z,3.93
2019-05-23T02:12:27.802Z,3.60
2019-05-23T02:14:59.434Z,3.70
2019-05-23T02:17:31.542Z,4.07
2019-05-23T02:20:02.557Z,3.70
2019-05-23T02:22:34.650Z,4.10
2019-05-23T02:25:06.931Z,4.13
2019-05-23T02:27:37.045Z,3.77
2019-05-23T02:30:30.123Z,3.60
2019-05-23T02:32:41.283Z,3.93
2019-05-23T02:35:13.358Z,3.87
2019-05-23T02:38:22.381Z,4.07
2019-05-23T02:41:10.219Z,4.00
2019-05-23T02:43:44.848Z,3.50
2019-05-23T02:46:24.182Z,3.17
2019-05-23T02:48:58.567Z,3.60
2019-05-23T02:51:32.307Z,3.40
2019-05-23T02:54:04.555Z,4.17
2019-05-23T02:56:38.688Z,3.90
2019-05-23T02:59:36.414Z,3.60
2019-05-23T03:02:35.853Z,3.57
2019-05-23T03:05:09.639Z,3.63
2019-05-23T03:07:40.232Z,3.87
2019-05-23T03:10:14.975Z,3.60
2019-05-23T03:12:46.237Z,3.80
2019-05-23T03:15:16.962Z,3.90
2019-05-23T03:17:51.467Z,3.73
2019-05-23T03:20:21.939Z,3.37
2019-05-23T03:22:56.910Z,4.00
2019-05-23T03:26:18.166Z,3.70
2019-05-23T03:28:49.487Z,3.80
2019-05-23T03:31:36.127Z,3.67
2019-05-23T03:34:09.104Z,3.90
2019-05-23T03:36:39.072Z,3.93
2019-05-23T03:39:09.295Z,4.27
2019-05-23T03:41:40.403Z,3.43
2019-05-23T03:44:12.270Z,3.73
2019-05-23T03:46:54.032Z,3.73
2019-05-23T03:49:25.471Z,3.83
2019-05-23T03:51:55.431Z,3.67
2019-05-23T03:54:27.539Z,3.10
2019-05-23T03:56:57.910Z,3.60
2019-05-23T03:59:31.400Z,3.73
2019-05-23T04:02:05.210Z,3.73
2019-05-23T04:04:36.684Z,3.80
2019-05-23T04:07:08.719Z,3.63
2019-05-23T04:09:38.735Z,3.47
2019-05-23T04:12:08.869Z,3.43
2019-05-23T04:14:39.200Z,3.70
2019-05-23T04:17:09.504Z,3.47
2019-05-23T04:19:41.487Z,3.77
2019-05-23T04:22:13.536Z,3.87
2019-05-23T04:24:43.569Z,3.27
2019-05-23T04:27:13.611Z,3.17
2019-05-23T04:29:46.138Z,3.37
2019-05-23T04:32:17.472Z,3.77
2019-05-23T04:34:47.240Z,4.13
2019-05-23T04:37:17.390Z,4.33
2019-05-23T04:39:47.164Z,4.43
2019-05-23T04:42:17.696Z,3.80
2019-05-23T04:44:47.492Z,3.53
2019-05-23T04:47:17.704Z,4.43
2019-05-23T04:49:49.150Z,3.87
2019-05-23T04:52:20.828Z,4.10
2019-05-23T04:54:51.091Z,4.10
2019-05-23T04:57:24.277Z,3.90
2019-05-23T04:59:54.078Z,3.97
2019-05-23T05:02:26.790Z,4.30
2019-05-23T05:05:00.524Z,4.10
2019-05-23T05:07:30.380Z,3.57
2019-05-23T05:10:01.175Z,3.83
2019-05-23T05:12:32.208Z,3.80
2019-05-23T05:15:01.998Z,3.33
2019-05-23T05:17:32.282Z,3.73
2019-05-23T05:20:02.351Z,3.93
2019-05-23T05:22:35.457Z,4.13
2019-05-23T05:25:07.338Z,4.00
2019-05-23T05:27:37.185Z,3.97
2019-05-23T05:30:10.807Z,3.67
2019-05-23T05:32:45.241Z,3.53
2019-05-23T05:35:13.430Z,3.83
2019-05-23T05:37:43.472Z,3.97
2019-05-23T05:40:15.018Z,3.70
2019-05-23T05:42:45.951Z,3.90
2019-05-23T05:45:17.047Z,3.63
2019-05-23T05:47:47.355Z,4.03
2019-05-23T05:50:17.559Z,3.60
2019-05-23T05:52:47.419Z,3.50
2019-05-23T05:55:17.187Z,3.90
2019-05-23T05:57:46.967Z,3.83
2019-05-23T06:00:38.569Z,3.70
2019-05-23T06:03:10.419Z,3.77
2019-05-23T06:05:50.647Z,3.87
2019-05-23T06:08:22.372Z,3.97
2019-05-23T06:10:52.300Z,4.17
2019-05-23T06:13:23.067Z,3.83
2019-05-23T06:15:53.734Z,15.63
2019-05-23T06:18:23.586Z,15.00
2019-05-23T06:21:02.026Z,15.50
2019-05-23T06:23:34.634Z,15.37
2019-05-23T06:26:05.302Z,15.20
2019-05-23T06:28:35.880Z,16.80
2019-05-23T06:31:08.831Z,13.43
2019-05-23T06:33:39.022Z,17.37
2019-05-23T06:36:09.286Z,175.55
2019-05-23T06:38:39.899Z,357.83
2019-05-23T06:41:09.982Z,155.67
2019-05-23T06:43:39.919Z,75.77
2019-05-23T06:46:12.686Z,43.43
2019-05-23T06:48:45.763Z,27.03
2019-05-23T06:51:14.189Z,25.70
2019-05-23T06:53:44.287Z,21.90
2019-05-23T06:56:15.658Z,20.57
2019-05-23T06:58:45.584Z,22.63
2019-05-23T07:01:16.568Z,20.20
2019-05-23T07:03:46.413Z,18.83
2019-05-23T07:06:19.775Z,24.20
2019-05-23T07:08:50.442Z,18.63
2019-05-23T07:11:22.677Z,23.03
2019-05-23T07:13:52.575Z,16.03
2019-05-23T07:16:22.376Z,16.00
2019-05-23T07:18:54.194Z,16.27
2019-05-23T07:21:26.127Z,16.17
2019-05-23T07:23:56.905Z,13.17
2019-05-23T07:26:27.191Z,10.23
2019-05-23T07:28:57.095Z,11.67
2019-05-23T07:31:31.305Z,11.03
2019-05-23T07:34:02.518Z,8.80
2019-05-23T07:36:34.214Z,10.77
2019-05-23T07:39:05.257Z,10.30
2019-05-23T07:41:35.423Z,11.57
2019-05-23T07:44:06.799Z,9.37
2019-05-23T07:46:37.428Z,10.73
2019-05-23T07:49:07.272Z,10.37
2019-05-23T07:51:37.214Z,11.13
2019-05-23T07:54:15.766Z,11.07
2019-05-23T07:56:49.859Z,13.37
2019-05-23T07:59:19.982Z,9.37
2019-05-23T08:01:55.726Z,8.17
2019-05-23T08:04:25.581Z,9.60
2019-05-23T08:06:55.460Z,9.33
2019-05-23T08:09:25.295Z,10.03
2019-05-23T08:11:59.325Z,9.67
2019-05-23T08:14:29.110Z,14.57
2019-05-23T08:16:59.527Z,8.23
2019-05-23T08:19:48.551Z,9.23
2019-05-23T08:22:06.266Z,8.20
2019-05-23T08:24:36.022Z,7.73
2019-05-23T08:27:07.265Z,8.83
2019-05-23T08:29:37.534Z,7.87
2019-05-23T08:32:10.224Z,7.90
2019-05-23T08:34:42.723Z,8.10
2019-05-23T08:37:13.685Z,8.03
2019-05-23T08:39:44.348Z,10.00
2019-05-23T08:42:16.204Z,8.77
2019-05-23T08:44:46.648Z,7.57
2019-05-23T08:47:17.976Z,8.67
2019-05-23T08:49:47.806Z,7.47
2019-05-23T08:52:17.718Z,9.40
2019-05-23T08:54:49.059Z,7.70
2019-05-23T08:57:18.861Z,7.10
2019-05-23T08:59:49.264Z,8.07
2019-05-23T09:02:20.262Z,11.07
2019-05-23T09:05:03.527Z,10.63
2019-05-23T09:07:22.883Z,7.63
2019-05-23T09:09:52.955Z,7.10
2019-05-23T09:12:24.678Z,19.93
2019-05-23T09:14:56.309Z,14.30
2019-05-23T09:17:49.737Z,9.33
2019-05-23T09:20:06.135Z,11.73
2019-05-23T09:22:38.842Z,13.00
2019-05-23T09:25:10.003Z,14.03
2019-05-23T09:27:39.879Z,12.77
2019-05-23T09:30:11.690Z,12.10
2019-05-23T09:32:44.762Z,7.60
2019-05-23T09:35:21.444Z,10.03
2019-05-23T09:37:49.662Z,10.50
2019-05-23T09:40:19.536Z,12.40
2019-05-23T09:42:49.368Z,9.87
2019-05-23T09:45:25.744Z,9.73
2019-05-23T09:48:05.269Z,10.80
2019-05-23T09:50:47.767Z,10.73
2019-05-23T09:53:21.289Z,9.00
2019-05-23T09:56:00.968Z,9.10
2019-05-23T09:58:36.770Z,11.63
2019-05-23T10:01:12.267Z,7.73
2019-05-23T10:03:43.666Z,10.50
2019-05-23T10:06:17.771Z,11.80
2019-05-23T10:08:52.345Z,8.53
2019-05-23T10:11:26.826Z,10.83
2019-05-23T10:13:59.609Z,8.93
2019-05-23T10:16:31.262Z,10.57
2019-05-23T10:19:02.398Z,11.00
2019-05-23T10:21:36.114Z,12.33
2019-05-23T10:24:09.083Z,11.10
2019-05-23T10:26:39.712Z,10.77
2019-05-23T10:29:09.765Z,9.27
2019-05-23T10:31:39.754Z,14.00
2019-05-23T10:34:11.248Z,8.97
2019-05-23T10:36:43.223Z,8.83
2019-05-23T10:39:14.006Z,13.60
2019-05-23T10:41:44.327Z,10.83
2019-05-23T10:44:14.374Z,11.77
2019-05-23T10:46:44.212Z,10.00
2019-05-23T10:49:14.093Z,9.00
2019-05-23T10:51:43.863Z,12.47
2019-05-23T10:54:14.092Z,10.73
2019-05-23T10:56:46.529Z,10.70
2019-05-23T10:59:16.692Z,9.20
2019-05-23T11:01:57.940Z,8.27
2019-05-23T11:04:28.789Z,11.17
2019-05-23T11:06:58.667Z,16.50
2019-05-23T11:09:37.901Z,11.27
2019-05-23T11:12:02.547Z,16.83
2019-05-23T11:14:32.788Z,10.27
2019-05-23T11:17:04.418Z,12.50
2019-05-23T11:19:34.877Z,10.83
2019-05-23T11:22:06.874Z,9.37
2019-05-23T11:24:37.110Z,13.17
2019-05-23T11:27:07.495Z,9.70
2019-05-23T11:29:37.362Z,7.50
2019-05-23T11:32:09.509Z,10.57
2019-05-23T11:34:44.672Z,11.17
2019-05-23T11:37:14.700Z,10.17
2019-05-23T11:39:49.607Z,11.83
2019-05-23T11:42:16.781Z,8.83
2019-05-23T11:44:47.996Z,8.23
2019-05-23T11:47:18.837Z,11.17
2019-05-23T11:49:48.688Z,7.90
2019-05-23T11:52:20.205Z,7.80
2019-05-23T11:54:51.996Z,12.33
2019-05-23T11:57:22.705Z,9.53
2019-05-23T11:59:52.961Z,10.83
2019-05-23T12:02:33.298Z,8.70
2019-05-23T12:05:06.123Z,8.30
2019-05-23T12:07:37.523Z,10.67
2019-05-23T12:10:08.118Z,11.60
2019-05-23T12:12:38.115Z,11.40
2019-05-23T12:15:13.731Z,5.83
2019-05-23T12:17:45.166Z,8.40
2019-05-23T12:20:15.788Z,6.20
2019-05-23T12:22:48.275Z,7.73
2019-05-23T12:25:22.952Z,8.47
2019-05-23T12:27:51.500Z,7.77
2019-05-23T12:30:23.402Z,6.37
2019-05-23T12:32:53.176Z,10.07
2019-05-23T12:35:23.683Z,7.73
2019-05-23T12:37:54.519Z,13.50
2019-05-23T12:40:25.314Z,8.10
2019-05-23T12:42:55.052Z,7.23
2019-05-23T12:45:24.841Z,7.40
2019-05-23T12:47:59.386Z,6.90
2019-05-23T12:50:35.260Z,5.80
2019-05-23T12:55:41.043Z,5.03
2019-05-23T12:58:10.899Z,4.77
2019-05-23T13:00:54.359Z,8.50
2019-05-23T13:03:24.518Z,7.30
2019-05-23T13:06:03.734Z,13.27
2019-05-23T13:08:33.505Z,10.03
2019-05-23T13:11:03.525Z,15.07
2019-05-23T13:13:33.835Z,13.13
2019-05-23T13:16:04.023Z,13.07
2019-05-23T13:18:33.773Z,9.67
2019-05-23T13:21:03.553Z,15.23
2019-05-23T13:23:35.410Z,14.77
2019-05-23T13:26:06.636Z,9.73
2019-05-23T13:28:37.022Z,9.03
2019-05-23T13:31:06.849Z,7.13
2019-05-23T13:33:39.790Z,7.10
2019-05-23T13:36:11.552Z,6.43
2019-05-23T13:38:41.603Z,9.23
2019-05-23T13:41:12.127Z,8.77
2019-05-23T13:43:42.112Z,5.77
2019-05-23T13:46:13.962Z,7.03
2019-05-23T13:48:44.507Z,8.17
2019-05-23T13:51:14.654Z,7.60
2019-05-23T13:53:45.163Z,12.03
2019-05-23T13:56:15.210Z,9.97
2019-05-23T13:58:45.225Z,6.87
2019-05-23T14:01:15.011Z,6.40
2019-05-23T14:03:44.922Z,10.03
2019-05-23T14:06:14.941Z,8.80
2019-05-23T14:08:45.007Z,7.90
2019-05-23T14:11:15.654Z,5.87
2019-05-23T14:13:46.555Z,7.23
2019-05-23T14:16:16.824Z,9.00
2019-05-23T14:18:49.660Z,9.37
2019-05-23T14:21:21.265Z,7.40
2019-05-23T14:23:55.871Z,7.73
2019-05-23T14:26:28.775Z,8.10
2019-05-23T14:28:59.791Z,8.33
2019-05-23T14:31:40.664Z,6.60
2019-05-23T14:34:13.422Z,4.87
2019-05-23T14:36:51.003Z,5.83
2019-05-23T14:39:39.008Z,4.40
2019-05-23T14:42:28.159Z,4.63
2019-05-23T14:44:58.747Z,5.20
2019-05-23T14:47:39.752Z,5.07
2019-05-23T14:50:36.224Z,4.50
2019-05-23T14:53:08.551Z,5.63
2019-05-23T14:55:38.398Z,6.40
2019-05-23T14:58:08.533Z,4.63
2019-05-23T15:00:39.440Z,6.53
2019-05-23T15:03:09.710Z,5.97
2019-05-23T15:05:39.560Z,7.80
2019-05-23T15:08:09.734Z,10.87
2019-05-23T15:10:40.958Z,4.53
2019-05-23T15:13:10.822Z,5.53
2019-05-23T15:15:42.558Z,10.63
2019-05-23T15:18:12.987Z,9.27
2019-05-23T15:20:42.753Z,10.83
2019-05-23T15:23:13.423Z,5.87
2019-05-23T15:25:44.358Z,6.77
2019-05-23T15:28:14.210Z,6.80
2019-05-23T15:30:43.963Z,8.20
2019-05-23T15:33:13.910Z,5.70
2019-05-23T15:35:45.240Z,12.37
2019-05-23T15:38:15.345Z,12.87
2019-05-23T15:40:45.115Z,11.73
2019-05-23T15:43:15.035Z,7.17
2019-05-23T15:45:44.870Z,9.07
2019-05-23T15:48:14.743Z,13.50
2019-05-23T15:50:50.065Z,8.70
2019-05-23T15:53:37.127Z,13.73
2019-05-23T15:56:26.593Z,10.97
2019-05-23T15:58:47.763Z,9.93
2019-05-23T16:01:27.625Z,10.73
2019-05-23T16:04:00.897Z,8.13
2019-05-23T16:06:32.738Z,11.13
2019-05-23T16:09:02.756Z,7.50
2019-05-23T16:11:32.667Z,5.93
2019-05-23T16:14:04.449Z,7.90
2019-05-23T16:16:35.751Z,7.83
2019-05-23T16:19:05.729Z,4.37
2019-05-23T16:21:37.256Z,6.90
2019-05-23T16:24:09.938Z,6.93
2019-05-23T16:26:40.042Z,7.27
2019-05-23T16:29:10.459Z,5.47
2019-05-23T16:31:41.040Z,3.47
2019-05-23T16:34:10.951Z,6.10
2019-05-23T16:36:42.385Z,3.70
2019-05-23T16:39:12.306Z,7.03
2019-05-23T16:41:42.158Z,6.87
2019-05-23T16:44:12.305Z,4.90
2019-05-23T16:46:42.339Z,7.60
2019-05-23T16:49:12.274Z,7.47
2019-05-23T16:51:42.152Z,4.37
2019-05-23T16:54:13.536Z,4.53
2019-05-23T16:56:59.824Z,10.80
2019-05-23T16:59:38.329Z,4.03
2019-05-23T17:02:16.612Z,5.90
2019-05-23T17:05:08.394Z,4.07
2019-05-23T17:07:41.319Z,5.73
2019-05-23T17:10:30.200Z,7.03
2019-05-23T17:13:18.050Z,5.20
2019-05-23T17:16:02.851Z,3.03
2019-05-23T17:18:52.031Z,4.33
2019-05-23T17:21:39.822Z,3.90
2019-05-23T17:24:32.569Z,5.10
2019-05-23T17:27:12.064Z,5.67
2019-05-23T17:29:48.720Z,7.90
2019-05-23T17:32:22.904Z,3.83
2019-05-23T17:34:52.893Z,6.00
2019-05-23T17:37:25.094Z,4.97
2019-05-23T17:39:56.671Z,5.63
2019-05-23T17:42:26.585Z,4.23
2019-05-23T17:44:56.343Z,3.00
2019-05-23T17:47:26.701Z,3.50
2019-05-23T17:49:56.634Z,3.33
2019-05-23T17:52:27.162Z,3.17
2019-05-23T17:54:57.181Z,4.00
2019-05-23T17:57:28.384Z,3.67
2019-05-23T18:00:01.311Z,3.63
2019-05-23T18:02:31.507Z,3.30
2019-05-23T18:05:01.512Z,4.30
2019-05-23T18:07:31.742Z,4.80
2019-05-23T18:10:01.690Z,3.83
2019-05-23T18:12:31.503Z,3.37
2019-05-23T18:15:02.256Z,4.23
2019-05-23T18:17:33.063Z,4.93
2019-05-23T18:20:02.854Z,5.20
2019-05-23T18:22:35.567Z,3.40
2019-05-23T18:25:07.763Z,3.93
2019-05-23T18:27:37.561Z,3.30
2019-05-23T18:30:09.673Z,4.30
2019-05-23T18:32:40.134Z,3.00
2019-05-23T18:35:12.102Z,3.43
2019-05-23T18:37:41.857Z,3.30
2019-05-23T18:40:12.552Z,4.20
2019-05-23T18:42:44.710Z,3.73
2019-05-23T18:45:16.473Z,3.10
2019-05-23T18:47:46.398Z,3.20
2019-05-23T18:50:17.303Z,3.13
2019-05-23T18:52:51.978Z,4.00
2019-05-23T18:55:22.267Z,3.90
2019-05-23T18:57:52.034Z,3.10
2019-05-23T19:00:44.643Z,3.20
2019-05-23T19:03:14.499Z,3.30
2019-05-23T19:05:44.428Z,4.13
2019-05-23T19:08:14.500Z,3.60
2019-05-23T19:10:45.007Z,3.10
2019-05-23T19:13:14.934Z,2.90
2019-05-23T19:15:44.936Z,2.90
2019-05-23T19:18:14.707Z,3.17
2019-05-23T19:20:44.743Z,3.13
2019-05-23T19:23:15.391Z,2.80
2019-05-23T19:25:46.858Z,2.97
2019-05-23T19:28:17.750Z,3.03
2019-05-23T19:30:47.851Z,3.00
2019-05-23T19:33:18.682Z,2.90
2019-05-23T19:35:49.044Z,3.63
2019-05-23T19:38:19.854Z,3.00
2019-05-23T19:40:50.534Z,3.50
2019-05-23T19:43:22.352Z,4.37
2019-05-23T19:45:52.329Z,3.07
2019-05-23T19:48:24.142Z,3.10
2019-05-23T19:50:55.657Z,3.50
2019-05-23T19:53:25.414Z,3.33
2019-05-23T19:55:55.540Z,3.07
2019-05-23T19:58:26.621Z,2.60
2019-05-23T20:00:56.926Z,3.10
2019-05-23T20:03:27.956Z,3.00
2019-05-23T20:05:59.096Z,3.07
2019-05-23T20:08:29.191Z,3.97
2019-05-23T20:10:59.227Z,2.90
2019-05-23T20:13:29.331Z,3.20
2019-05-23T20:15:59.095Z,2.83
2019-05-23T20:18:29.565Z,2.70
2019-05-23T20:20:59.386Z,2.67
2019-05-23T20:23:31.990Z,2.97
2019-05-23T20:26:03.012Z,2.80
2019-05-23T20:28:33.569Z,2.73
2019-05-23T20:31:05.508Z,2.90
2019-05-23T20:33:35.453Z,2.50
2019-05-23T20:36:12.453Z,2.77
2019-05-23T20:38:41.578Z,2.97
2019-05-23T20:41:12.104Z,2.80
2019-05-23T20:43:43.593Z,2.80
2019-05-23T20:46:13.990Z,3.00
2019-05-23T20:48:43.770Z,2.60
2019-05-23T20:51:14.179Z,2.80
2019-05-23T20:53:45.092Z,3.03
2019-05-23T20:56:15.037Z,3.73
2019-05-23T20:58:44.795Z,3.33
2019-05-23T21:01:19.870Z,2.57
2019-05-23T21:03:51.170Z,3.47
2019-05-23T21:06:21.314Z,3.63
2019-05-23T21:08:51.198Z,3.23
2019-05-23T21:11:21.905Z,3.10
2019-05-23T21:13:51.694Z,3.03
2019-05-23T21:16:21.670Z,2.87
2019-05-23T21:18:52.047Z,2.97
2019-05-23T21:21:21.780Z,2.57
2019-05-23T21:23:56.602Z,2.70
2019-05-23T21:26:25.126Z,2.87
2019-05-23T21:28:55.380Z,2.67
2019-05-23T21:31:26.736Z,2.70
2019-05-23T21:33:56.522Z,3.17
2019-05-23T21:36:26.316Z,2.80
2019-05-23T21:38:56.062Z,3.50
2019-05-23T21:41:26.883Z,2.90
2019-05-23T21:43:58.414Z,3.07
2019-05-23T21:46:28.269Z,2.70
2019-05-23T21:48:58.154Z,2.67
2019-05-23T21:51:27.980Z,2.60
2019-05-23T21:53:57.908Z,2.53
2019-05-23T21:56:27.706Z,2.90
2019-05-23T21:58:57.734Z,2.90
2019-05-23T22:01:45.792Z,2.70
2019-05-23T22:04:20.498Z,3.13
2019-05-23T22:07:09.922Z,2.57
2019-05-23T22:09:40.019Z,2.67
2019-05-23T22:12:14.419Z,2.67
2019-05-23T22:14:45.319Z,2.70
2019-05-23T22:17:15.574Z,2.90
2019-05-23T22:19:45.582Z,2.60
2019-05-23T22:22:16.630Z,2.87
2019-05-23T22:24:47.884Z,2.50
2019-05-23T22:27:18.798Z,2.40
2019-05-23T22:29:48.584Z,2.77
2019-05-23T22:32:19.995Z,2.83
2019-05-23T22:35:08.680Z,2.97
2019-05-23T22:37:38.419Z,3.00
2019-05-23T22:40:09.300Z,3.20
2019-05-23T22:42:40.321Z,2.90
2019-05-23T22:45:14.878Z,2.70
2019-05-23T22:47:44.648Z,2.63
2019-05-23T22:50:14.669Z,2.73
2019-05-23T22:52:44.423Z,2.87
2019-05-23T22:55:14.279Z,2.97
2019-05-23T22:57:44.435Z,2.73
2019-05-23T23:00:16.702Z,3.17
2019-05-23T23:02:46.712Z,2.90
2019-05-23T23:05:16.450Z,3.07
2019-05-23T23:07:46.215Z,2.67
2019-05-23T23:10:16.450Z,3.03
2019-05-23T23:12:48.102Z,2.73
2019-05-23T23:15:18.198Z,2.50
2019-05-23T23:17:48.035Z,2.53
2019-05-23T23:20:17.928Z,2.70
2019-05-23T23:22:49.400Z,2.60
2019-05-23T23:25:19.301Z,2.90
2019-05-23T23:27:49.050Z,2.50
2019-05-23T23:30:21.924Z,2.87
2019-05-23T23:32:51.723Z,3.10
2019-05-23T23:35:21.471Z,3.00
2019-05-23T23:37:51.759Z,3.07
2019-05-23T23:40:21.576Z,2.80
2019-05-23T23:42:52.405Z,2.67
2019-05-23T23:45:40.122Z,2.73
2019-05-23T23:48:27.675Z,2.80
2019-05-23T23:51:15.268Z,2.50
2019-05-23T23:54:02.818Z,2.47
2019-05-23T23:56:50.420Z,3.10
2019-05-23T23:59:19.750Z,2.73
